Allegre, Kentucky
Current Conditions -  °F | °C
As of 3:58 PM on Friday 24 Oct 2014 (Local Time) from KHOP Reporting Station
Few Clouds Few Clouds  
Wind Chill: 20°   Ceiling: Unl
Heat Index: 20°   Visibility: 8mi
Dew Point:   Wind: 3mph
Humidity: 49%   Direction: 270°W
Pressure: 30.06"   Gusts: NA
Location:  36.93°N, 87.22°W
Report Text: KHOP 242058Z AUTO 27003KT 8SM FEW040 20/09 A3006 RMK AO2 SLP180 T02000091 57016
Loading
Personal Weather Stations






























Interactive Weather Map
Tropical Storm Tracking
New forecast layout! Learn more

10-Day Weather Forecast

Advertisements
Track Severe Weather on mobile